sensor_id;sensor_type;location;lat;lon;timestamp;pressure;altitude;pressure_sealevel;temperature;humidity
50292;BME280;36190;54.980;73.388;2023-04-01T00:01:03;102838.59;;;-4.18;56.17
50292;BME280;36190;54.980;73.388;2023-04-01T00:03:32;102851.63;;;-4.15;56.13
50292;BME280;36190;54.980;73.388;2023-04-01T00:06:01;102849.91;;;-4.19;56.38
50292;BME280;36190;54.980;73.388;2023-04-01T00:08:29;102849.94;;;-4.21;56.25
50292;BME280;36190;54.980;73.388;2023-04-01T00:10:57;102842.97;;;-4.22;56.41
50292;BME280;36190;54.980;73.388;2023-04-01T00:13:25;102842.97;;;-4.22;56.53
50292;BME280;36190;54.980;73.388;2023-04-01T00:15:53;102840.41;;;-4.23;56.51
50292;BME280;36190;54.980;73.388;2023-04-01T00:18:20;102835.19;;;-4.25;56.44
50292;BME280;36190;54.980;73.388;2023-04-01T00:20:50;102841.31;;;-4.29;56.55
50292;BME280;36190;54.980;73.388;2023-04-01T00:23:19;102843.06;;;-4.28;56.73
50292;BME280;36190;54.980;73.388;2023-04-01T00:25:47;102844.78;;;-4.30;56.85
50292;BME280;36190;54.980;73.388;2023-04-01T00:28:15;102847.41;;;-4.32;56.83
50292;BME280;36190;54.980;73.388;2023-04-01T00:30:43;102856.97;;;-4.32;56.99
50292;BME280;36190;54.980;73.388;2023-04-01T00:33:11;102856.97;;;-4.34;57.11
50292;BME280;36190;54.980;73.388;2023-04-01T00:35:38;102859.59;;;-4.37;57.17
50292;BME280;36190;54.980;73.388;2023-04-01T00:38:06;102865.69;;;-4.36;57.14
50292;BME280;36190;54.980;73.388;2023-04-01T00:40:37;102863.09;;;-4.39;57.43
50292;BME280;36190;54.980;73.388;2023-04-01T00:43:11;102860.50;;;-4.36;57.54
50292;BME280;36190;54.980;73.388;2023-04-01T00:45:40;102856.16;;;-4.40;57.54
50292;BME280;36190;54.980;73.388;2023-04-01T00:48:10;102854.47;;;-4.45;57.79
50292;BME280;36190;54.980;73.388;2023-04-01T00:50:42;102861.34;;;-4.36;57.87
50292;BME280;36190;54.980;73.388;2023-04-01T00:53:12;102865.66;;;-4.33;57.73
50292;BME280;36190;54.980;73.388;2023-04-01T00:55:48;102859.56;;;-4.34;58.07
50292;BME280;36190;54.980;73.388;2023-04-01T00:58:18;102858.69;;;-4.31;57.92
50292;BME280;36190;54.980;73.388;2023-04-01T01:00:49;102859.56;;;-4.29;57.76
50292;BME280;36190;54.980;73.388;2023-04-01T01:03:17;102856.94;;;-4.26;57.78
50292;BME280;36190;54.980;73.388;2023-04-01T01:06:08;102858.63;;;-4.22;58.25
50292;BME280;36190;54.980;73.388;2023-04-01T01:11:33;102860.34;;;-4.18;57.95
50292;BME280;36190;54.980;73.388;2023-04-01T01:14:10;102864.66;;;-4.12;58.09
50292;BME280;36190;54.980;73.388;2023-04-01T01:16:43;102855.94;;;-4.11;57.83
50292;BME280;36190;54.980;73.388;2023-04-01T01:19:30;102860.22;;;-4.02;58.13
50292;BME280;36190;54.980;73.388;2023-04-01T01:22:22;102853.22;;;-3.97;57.90
50292;BME280;36190;54.980;73.388;2023-04-01T01:25:08;102850.56;;;-3.91;57.95
50292;BME280;36190;54.980;73.388;2023-04-01T01:27:41;102848.84;;;-3.90;57.73
50292;BME280;36190;54.980;73.388;2023-04-01T01:30:31;102855.72;;;-3.83;57.80
50292;BME280;36190;54.980;73.388;2023-04-01T01:33:17;102864.41;;;-3.81;57.70
50292;BME280;36190;54.980;73.388;2023-04-01T01:35:50;102853.97;;;-3.81;57.70
50292;BME280;36190;54.980;73.388;2023-04-01T01:38:22;102846.13;;;-3.82;57.49
50292;BME280;36190;54.980;73.388;2023-04-01T01:40:51;102862.56;;;-3.71;57.42
50292;BME280;36190;54.980;73.388;2023-04-01T01:43:24;102859.88;;;-3.65;57.32
50292;BME280;36190;54.980;73.388;2023-04-01T01:45:54;102845.19;;;-3.74;57.55
50292;BME280;36190;54.980;73.388;2023-04-01T01:48:24;102857.22;;;-3.59;57.34
50292;BME280;36190;54.980;73.388;2023-04-01T01:50:55;102863.28;;;-3.53;57.46
50292;BME280;36190;54.980;73.388;2023-04-01T01:53:22;102868.44;;;-3.47;57.35
50292;BME280;36190;54.980;73.388;2023-04-01T01:55:50;102876.19;;;-3.39;57.29
50292;BME280;36190;54.980;73.388;2023-04-01T01:58:22;102870.91;;;-3.35;57.42
50292;BME280;36190;54.980;73.388;2023-04-01T02:00:54;102879.53;;;-3.28;57.23
50292;BME280;36190;54.980;73.388;2023-04-01T02:03:24;102869.91;;;-3.24;57.25
50292;BME280;36190;54.980;73.388;2023-04-01T02:05:57;102875.97;;;-3.18;57.14
50292;BME280;36190;54.980;73.388;2023-04-01T02:08:29;102869.91;;;-3.21;57.10
50292;BME280;36190;54.980;73.388;2023-04-01T02:11:03;102864.69;;;-3.24;56.96
50292;BME280;36190;54.980;73.388;2023-04-01T02:13:35;102887.13;;;-3.05;57.03
50292;BME280;36190;54.980;73.388;2023-04-01T02:16:10;102897.50;;;-2.98;56.95
50292;BME280;36190;54.980;73.388;2023-04-01T02:18:39;102898.31;;;-2.95;56.80
50292;BME280;36190;54.980;73.388;2023-04-01T02:21:10;102886.13;;;-2.96;56.68
50292;BME280;36190;54.980;73.388;2023-04-01T02:23:39;102896.50;;;-2.90;56.70
50292;BME280;36190;54.980;73.388;2023-04-01T02:26:08;102901.66;;;-2.82;56.69
50292;BME280;36190;54.980;73.388;2023-04-01T02:28:38;102892.88;;;-2.76;56.70
50292;BME280;36190;54.980;73.388;2023-04-01T02:31:08;102892.78;;;-2.70;56.49
50292;BME280;36190;54.980;73.388;2023-04-01T02:33:38;102891.84;;;-2.64;56.46
50292;BME280;36190;54.980;73.388;2023-04-01T02:36:06;102896.19;;;-2.63;56.38
50292;BME280;36190;54.980;73.388;2023-04-01T02:38:39;102903.97;;;-2.60;56.43
50292;BME280;36190;54.980;73.388;2023-04-01T02:41:06;102895.22;;;-2.56;56.32
50292;BME280;36190;54.980;73.388;2023-04-01T02:43:34;102894.28;;;-2.52;56.32
50292;BME280;36190;54.980;73.388;2023-04-01T02:46:01;102888.09;;;-2.44;56.30
50292;BME280;36190;54.980;73.388;2023-04-01T02:48:29;102891.47;;;-2.36;56.29
50292;BME280;36190;54.980;73.388;2023-04-01T02:50:56;102895.78;;;-2.32;56.06
50292;BME280;36190;54.980;73.388;2023-04-01T02:53:24;102893.09;;;-2.27;55.85
50292;BME280;36190;54.980;73.388;2023-04-01T02:55:53;102900.94;;;-2.29;55.83
50292;BME280;36190;54.980;73.388;2023-04-01T02:58:21;102907.06;;;-2.30;55.78
50292;BME280;36190;54.980;73.388;2023-04-01T03:00:48;102905.34;;;-2.31;55.89
50292;BME280;36190;54.980;73.388;2023-04-01T03:03:16;102904.44;;;-2.30;55.89
50292;BME280;36190;54.980;73.388;2023-04-01T03:05:43;102910.44;;;-2.22;56.02
50292;BME280;36190;54.980;73.388;2023-04-01T03:08:11;102915.53;;;-2.12;55.85
50292;BME280;36190;54.980;73.388;2023-04-01T03:10:38;102921.59;;;-2.10;55.74
50292;BME280;36190;54.980;73.388;2023-04-01T03:13:07;102919.91;;;-2.14;55.92
50292;BME280;36190;54.980;73.388;2023-04-01T03:15:35;102919.88;;;-2.11;55.98
50292;BME280;36190;54.980;73.388;2023-04-01T03:18:03;102922.47;;;-2.11;56.05
50292;BME280;36190;54.980;73.388;2023-04-01T03:20:30;102931.06;;;-2.00;55.92
50292;BME280;36190;54.980;73.388;2023-04-01T03:22:58;102932.78;;;-1.99;56.00
50292;BME280;36190;54.980;73.388;2023-04-01T03:25:25;102942.34;;;-1.96;56.08
50292;BME280;36190;54.980;73.388;2023-04-01T03:27:54;102936.97;;;-1.90;56.03
50292;BME280;36190;54.980;73.388;2023-04-01T03:30:23;102937.81;;;-1.86;55.97
50292;BME280;36190;54.980;73.388;2023-04-01T03:32:50;102936.97;;;-1.87;56.02
50292;BME280;36190;54.980;73.388;2023-04-01T03:35:18;102944.75;;;-1.85;56.11
50292;BME280;36190;54.980;73.388;2023-04-01T03:37:45;102951.75;;;-1.86;56.19
50292;BME280;36190;54.980;73.388;2023-04-01T03:40:13;102949.16;;;-1.86;56.14
50292;BME280;36190;54.980;73.388;2023-04-01T03:42:40;102950.84;;;-1.83;56.19
50292;BME280;36190;54.980;73.388;2023-04-01T03:45:08;102953.47;;;-1.83;56.23
50292;BME280;36190;54.980;73.388;2023-04-01T03:47:39;102956.94;;;-1.81;56.20
50292;BME280;36190;54.980;73.388;2023-04-01T03:50:07;102959.38;;;-1.72;56.15
50292;BME280;36190;54.980;73.388;2023-04-01T03:52:35;102970.59;;;-1.63;56.23
50292;BME280;36190;54.980;73.388;2023-04-01T03:55:04;102970.53;;;-1.60;56.16
50292;BME280;36190;54.980;73.388;2023-04-01T03:57:31;102967.16;;;-1.66;56.37
50292;BME280;36190;54.980;73.388;2023-04-01T03:59:59;102967.97;;;-1.63;56.38
50292;BME280;36190;54.980;73.388;2023-04-01T04:02:26;102963.50;;;-1.55;56.48
50292;BME280;36190;54.980;73.388;2023-04-01T04:04:55;102969.47;;;-1.48;56.49
50292;BME280;36190;54.980;73.388;2023-04-01T04:07:22;102971.91;;;-1.36;56.49
50292;BME280;36190;54.980;73.388;2023-04-01T04:09:50;102954.34;;;-1.31;56.23
50292;BME280;36190;54.980;73.388;2023-04-01T04:12:17;102971.38;;;-1.08;56.12
50292;BME280;36190;54.980;73.388;2023-04-01T04:14:45;102975.53;;;-0.94;55.88
50292;BME280;36190;54.980;73.388;2023-04-01T04:17:12;102975.44;;;-0.91;55.54
50292;BME280;36190;54.980;73.388;2023-04-01T04:19:42;102963.19;;;-0.89;55.60
50292;BME280;36190;54.980;73.388;2023-04-01T04:22:11;102973.63;;;-0.86;55.17
50292;BME280;36190;54.980;73.388;2023-04-01T04:24:38;102974.50;;;-0.86;55.22
50292;BME280;36190;54.980;73.388;2023-04-01T04:27:05;102976.06;;;-0.78;55.13
50292;BME280;36190;54.980;73.388;2023-04-01T04:29:33;102958.56;;;-0.76;54.82
50292;BME280;36190;54.980;73.388;2023-04-01T04:32:01;102965.59;;;-0.78;54.76
50292;BME280;36190;54.980;73.388;2023-04-01T04:34:28;102967.28;;;-0.76;54.78
50292;BME280;36190;54.980;73.388;2023-04-01T04:36:56;102968.09;;;-0.72;54.76
50292;BME280;36190;54.980;73.388;2023-04-01T04:39:25;102975.84;;;-0.66;54.58
50292;BME280;36190;54.980;73.388;2023-04-01T04:41:52;102979.16;;;-0.58;54.45
50292;BME280;36190;54.980;73.388;2023-04-01T04:44:20;102975.53;;;-0.50;54.24
50292;BME280;36190;54.980;73.388;2023-04-01T04:46:47;102984.03;;;-0.39;54.13
50292;BME280;36190;54.980;73.388;2023-04-01T04:49:15;102976.81;;;-0.28;53.94
50292;BME280;36190;54.980;73.388;2023-04-01T04:51:42;102981.91;;;-0.21;53.49
50292;BME280;36190;54.980;73.388;2023-04-01T04:54:11;102976.59;;;-0.18;53.39
50292;BME280;36190;54.980;73.388;2023-04-01T04:56:39;102976.47;;;-0.12;53.17
50292;BME280;36190;54.980;73.388;2023-04-01T04:59:07;102976.41;;;-0.10;53.11
50292;BME280;36190;54.980;73.388;2023-04-01T05:01:35;102982.53;;;-0.10;52.88
50292;BME280;36190;54.980;73.388;2023-04-01T05:04:02;102978.88;;;-0.03;53.03
50292;BME280;36190;54.980;73.388;2023-04-01T05:06:29;102981.41;;;0.02;52.71
50292;BME280;36190;54.980;73.388;2023-04-01T05:08:57;102974.31;;;0.06;52.82
50292;BME280;36190;54.980;73.388;2023-04-01T05:11:25;102973.44;;;0.05;52.35
50292;BME280;36190;54.980;73.388;2023-04-01T05:13:54;102972.78;;;-0.05;52.50
50292;BME280;36190;54.980;73.388;2023-04-01T05:16:22;102972.06;;;-0.11;52.58
50292;BME280;36190;54.980;73.388;2023-04-01T05:18:49;102975.69;;;-0.17;52.67
50292;BME280;36190;54.980;73.388;2023-04-01T05:21:17;102969.47;;;-0.13;52.63
50292;BME280;36190;54.980;73.388;2023-04-01T05:23:44;102969.22;;;-0.02;52.66
50292;BME280;36190;54.980;73.388;2023-04-01T05:26:13;102970.69;;;0.10;52.35
50292;BME280;36190;54.980;73.388;2023-04-01T05:28:41;102956.44;;;0.20;52.01
50292;BME280;36190;54.980;73.388;2023-04-01T05:31:10;102952.78;;;0.27;52.15
50292;BME280;36190;54.980;73.388;2023-04-01T05:33:37;102958.59;;;0.40;52.03
50292;BME280;36190;54.980;73.388;2023-04-01T05:36:07;102957.66;;;0.43;51.83
50292;BME280;36190;54.980;73.388;2023-04-01T05:38:34;102953.31;;;0.42;52.06
50292;BME280;36190;54.980;73.388;2023-04-01T05:41:05;102952.50;;;0.40;52.11
50292;BME280;36190;54.980;73.388;2023-04-01T05:43:35;102944.50;;;0.45;52.24
50292;BME280;36190;54.980;73.388;2023-04-01T05:46:03;102944.16;;;0.57;52.25
50292;BME280;36190;54.980;73.388;2023-04-01T05:48:32;102941.34;;;0.65;52.14
50292;BME280;36190;54.980;73.388;2023-04-01T05:51:00;102938.72;;;0.65;52.01
50292;BME280;36190;54.980;73.388;2023-04-01T05:53:27;102942.13;;;0.68;51.89
50292;BME280;36190;54.980;73.388;2023-04-01T05:55:55;102936.00;;;0.68;52.17
50292;BME280;36190;54.980;73.388;2023-04-01T05:58:23;102934.16;;;0.72;52.17
50292;BME280;36190;54.980;73.388;2023-04-01T06:00:50;102933.09;;;0.79;52.11
50292;BME280;36190;54.980;73.388;2023-04-01T06:03:17;102932.13;;;0.83;51.92
50292;BME280;36190;54.980;73.388;2023-04-01T06:05:46;102944.94;;;0.94;51.84
50292;BME280;36190;54.980;73.388;2023-04-01T06:08:16;102934.38;;;0.97;51.77
50292;BME280;36190;54.980;73.388;2023-04-01T06:11:03;102933.56;;;0.95;51.75
50292;BME280;36190;54.980;73.388;2023-04-01T06:13:53;102926.63;;;0.91;51.80
50292;BME280;36190;54.980;73.388;2023-04-01T06:16:36;102930.94;;;0.93;52.13
50292;BME280;36190;54.980;73.388;2023-04-01T06:19:17;102927.41;;;0.94;52.21
50292;BME280;36190;54.980;73.388;2023-04-01T06:24:50;102934.56;;;1.21;52.14
50292;BME280;36190;54.980;73.388;2023-04-01T06:27:43;102926.38;;;1.32;52.25
50292;BME280;36190;54.980;73.388;2023-04-01T06:30:29;102927.97;;;1.37;52.25
50292;BME280;36190;54.980;73.388;2023-04-01T06:35:58;102936.56;;;1.43;52.29
50292;BME280;36190;54.980;73.388;2023-04-01T06:38:42;102936.56;;;1.43;52.31
50292;BME280;36190;54.980;73.388;2023-04-01T06:44:25;102917.97;;;1.49;52.54
50292;BME280;36190;54.980;73.388;2023-04-01T06:46:58;102926.59;;;1.54;52.49
50292;BME280;36190;54.980;73.388;2023-04-01T06:49:44;102922.75;;;1.64;52.97
50292;BME280;36190;54.980;73.388;2023-04-01T06:52:22;102915.00;;;1.60;52.76
50292;BME280;36190;54.980;73.388;2023-04-01T06:54:53;102931.94;;;1.79;52.72
50292;BME280;36190;54.980;73.388;2023-04-01T06:57:28;102920.38;;;1.85;52.49
50292;BME280;36190;54.980;73.388;2023-04-01T06:59:58;102924.41;;;1.97;52.33
50292;BME280;36190;54.980;73.388;2023-04-01T07:02:33;102919.78;;;2.04;52.31
50292;BME280;36190;54.980;73.388;2023-04-01T07:05:04;102925.06;;;2.04;52.26
50292;BME280;36190;54.980;73.388;2023-04-01T07:07:36;102920.44;;;2.11;52.34
50292;BME280;36190;54.980;73.388;2023-04-01T07:10:11;102901.75;;;2.18;52.33
50292;BME280;36190;54.980;73.388;2023-04-01T07:12:44;102914.63;;;2.28;52.13
50292;BME280;36190;54.980;73.388;2023-04-01T07:15:18;102902.16;;;2.33;52.00
50292;BME280;36190;54.980;73.388;2023-04-01T07:17:50;102897.91;;;2.29;52.05
50292;BME280;36190;54.980;73.388;2023-04-01T07:20:23;102902.28;;;2.28;52.09
50292;BME280;36190;54.980;73.388;2023-04-01T07:22:54;102891.00;;;2.25;51.86
50292;BME280;36190;54.980;73.388;2023-04-01T07:25:27;102884.75;;;2.27;51.97
50292;BME280;36190;54.980;73.388;2023-04-01T07:28:00;102887.16;;;2.35;51.85
50292;BME280;36190;54.980;73.388;2023-04-01T07:30:36;102884.00;;;2.51;51.79
50292;BME280;36190;54.980;73.388;2023-04-01T07:33:12;102887.22;;;2.59;51.41
50292;BME280;36190;54.980;73.388;2023-04-01T07:35:46;102884.25;;;2.68;51.47
50292;BME280;36190;54.980;73.388;2023-04-01T07:38:26;102892.75;;;2.77;51.23
50292;BME280;36190;54.980;73.388;2023-04-01T07:41:08;102899.63;;;2.81;51.01
50292;BME280;36190;54.980;73.388;2023-04-01T07:43:50;102887.31;;;2.81;50.94
50292;BME280;36190;54.980;73.388;2023-04-01T07:46:42;102900.16;;;2.91;50.52
50292;BME280;36190;54.980;73.388;2023-04-01T07:49:16;102881.63;;;2.92;50.49
50292;BME280;36190;54.980;73.388;2023-04-01T07:51:49;102885.69;;;3.01;50.40
50292;BME280;36190;54.980;73.388;2023-04-01T07:54:26;102885.44;;;3.09;50.16
50292;BME280;36190;54.980;73.388;2023-04-01T07:57:00;102883.53;;;3.12;50.05
50292;BME280;36190;54.980;73.388;2023-04-01T07:59:37;102874.56;;;3.16;49.83
50292;BME280;36190;54.980;73.388;2023-04-01T08:02:17;102869.94;;;3.23;49.73
50292;BME280;36190;54.980;73.388;2023-04-01T08:04:58;102878.47;;;3.30;49.67
50292;BME280;36190;54.980;73.388;2023-04-01T08:07:33;102862.31;;;3.38;49.46
50292;BME280;36190;54.980;73.388;2023-04-01T08:10:11;102870.81;;;3.46;49.20
50292;BME280;36190;54.980;73.388;2023-04-01T08:12:47;102845.28;;;3.47;48.76
50292;BME280;36190;54.980;73.388;2023-04-01T08:15:23;102862.16;;;3.65;48.29
50292;BME280;36190;54.980;73.388;2023-04-01T08:18:05;102864.19;;;3.80;48.07
50292;BME280;36190;54.980;73.388;2023-04-01T08:20:38;102856.72;;;3.90;48.22
50292;BME280;36190;54.980;73.388;2023-04-01T08:23:11;102850.75;;;4.07;48.16
50292;BME280;36190;54.980;73.388;2023-04-01T08:25:44;102855.25;;;4.26;47.80
50292;BME280;36190;54.980;73.388;2023-04-01T08:28:22;102853.13;;;4.34;47.50
50292;BME280;36190;54.980;73.388;2023-04-01T08:30:53;102827.69;;;4.32;47.27
50292;BME280;36190;54.980;73.388;2023-04-01T08:33:25;102851.59;;;4.49;46.90
50292;BME280;36190;54.980;73.388;2023-04-01T08:35:56;102854.75;;;4.58;46.85
50292;BME280;36190;54.980;73.388;2023-04-01T08:38:31;102855.94;;;4.71;46.69
50292;BME280;36190;54.980;73.388;2023-04-01T08:41:05;102856.25;;;4.84;46.23
50292;BME280;36190;54.980;73.388;2023-04-01T08:43:50;102852.06;;;4.99;45.91
50292;BME280;36190;54.980;73.388;2023-04-01T08:49:56;102823.28;;;5.30;45.57
50292;BME280;36190;54.980;73.388;2023-04-01T08:52:35;102834.34;;;5.38;45.30
50292;BME280;36190;54.980;73.388;2023-04-01T08:55:24;102815.75;;;5.40;45.02
50292;BME280;36190;54.980;73.388;2023-04-01T08:58:06;102821.63;;;5.64;44.78
50292;BME280;36190;54.980;73.388;2023-04-01T09:00:44;102824.28;;;5.64;44.63
50292;BME280;36190;54.980;73.388;2023-04-01T09:03:27;102839.00;;;5.70;44.52
50292;BME280;36190;54.980;73.388;2023-04-01T09:06:24;102822.19;;;5.88;44.69
50292;BME280;36190;54.980;73.388;2023-04-01T09:09:10;102823.59;;;5.96;44.21
50292;BME280;36190;54.980;73.388;2023-04-01T09:17:59;102818.72;;;6.05;43.84
50292;BME280;36190;54.980;73.388;2023-04-01T09:20:42;102803.09;;;5.99;44.04
50292;BME280;36190;54.980;73.388;2023-04-01T09:23:32;102812.00;;;6.16;44.07
50292;BME280;36190;54.980;73.388;2023-04-01T09:26:25;102807.78;;;6.29;43.53
50292;BME280;36190;54.980;73.388;2023-04-01T09:29:05;102816.41;;;6.51;43.29
50292;BME280;36190;54.980;73.388;2023-04-01T09:32:00;102807.63;;;6.82;43.21
50292;BME280;36190;54.980;73.388;2023-04-01T09:34:49;102811.44;;;7.10;42.82
50292;BME280;36190;54.980;73.388;2023-04-01T09:37:21;102813.38;;;7.23;42.44
50292;BME280;36190;54.980;73.388;2023-04-01T09:40:20;102803.03;;;7.34;42.33
50292;BME280;36190;54.980;73.388;2023-04-01T09:46:11;102793.97;;;7.69;41.50
50292;BME280;36190;54.980;73.388;2023-04-01T09:49:05;102794.66;;;7.87;41.02
50292;BME280;36190;54.980;73.388;2023-04-01T09:51:51;102786.97;;;7.82;40.91
50292;BME280;36190;54.980;73.388;2023-04-01T09:54:34;102791.25;;;7.85;40.61
50292;BME280;36190;54.980;73.388;2023-04-01T09:57:37;102774.94;;;7.91;40.65
50292;BME280;36190;54.980;73.388;2023-04-01T10:00:32;102774.50;;;7.68;40.35
50292;BME280;36190;54.980;73.388;2023-04-01T10:06:36;102768.91;;;7.73;40.36
50292;BME280;36190;54.980;73.388;2023-04-01T10:15:22;102768.47;;;7.81;40.94
50292;BME280;36190;54.980;73.388;2023-04-01T10:18:26;102763.50;;;7.75;40.52
50292;BME280;36190;54.980;73.388;2023-04-01T10:21:24;102768.31;;;7.68;40.51
50292;BME280;36190;54.980;73.388;2023-04-01T10:27:06;102769.97;;;7.85;40.25
50292;BME280;36190;54.980;73.388;2023-04-01T10:35:56;102776.03;;;7.73;40.43
50292;BME280;36190;54.980;73.388;2023-04-01T10:39:05;102771.97;;;7.81;40.02
50292;BME280;36190;54.980;73.388;2023-04-01T10:42:07;102764.19;;;7.78;40.00
50292;BME280;36190;54.980;73.388;2023-04-01T10:53:37;102763.44;;;7.91;39.56
50292;BME280;36190;54.980;73.388;2023-04-01T10:56:36;102778.31;;;8.09;38.93
50292;BME280;36190;54.980;73.388;2023-04-01T10:59:27;102773.06;;;8.37;38.78
50292;BME280;36190;54.980;73.388;2023-04-01T11:05:29;102774.16;;;9.05;38.07
50292;BME280;36190;54.980;73.388;2023-04-01T11:08:50;102757.72;;;9.26;37.63
50292;BME280;36190;54.980;73.388;2023-04-01T11:21:36;102757.00;;;10.16;36.68
50292;BME280;36190;54.980;73.388;2023-04-01T11:24:17;102758.16;;;10.38;37.20
50292;BME280;36190;54.980;73.388;2023-04-01T11:26:53;102753.19;;;10.21;36.58
50292;BME280;36190;54.980;73.388;2023-04-01T11:29:47;102762.16;;;10.45;36.47
50292;BME280;36190;54.980;73.388;2023-04-01T11:32:31;102766.16;;;10.64;36.31
50292;BME280;36190;54.980;73.388;2023-04-01T11:35:19;102740.66;;;10.60;35.85
50292;BME280;36190;54.980;73.388;2023-04-01T11:37:57;102761.84;;;10.75;35.98
50292;BME280;36190;54.980;73.388;2023-04-01T11:40:33;102750.44;;;10.72;35.98
50292;BME280;36190;54.980;73.388;2023-04-01T11:43:09;102742.97;;;10.78;36.03
50292;BME280;36190;54.980;73.388;2023-04-01T11:45:45;102731.22;;;11.05;35.73
50292;BME280;36190;54.980;73.388;2023-04-01T11:48:37;102750.03;;;11.27;35.41
50292;BME280;36190;54.980;73.388;2023-04-01T11:51:29;102740.84;;;11.43;35.06
50292;BME280;36190;54.980;73.388;2023-04-01T11:54:10;102733.28;;;11.37;35.01
50292;BME280;36190;54.980;73.388;2023-04-01T11:56:57;102727.84;;;11.38;35.25
50292;BME280;36190;54.980;73.388;2023-04-01T11:59:52;102732.53;;;11.71;35.06
50292;BME280;36190;54.980;73.388;2023-04-01T12:02:29;102740.34;;;11.85;34.85
50292;BME280;36190;54.980;73.388;2023-04-01T12:05:12;102743.16;;;11.83;34.39
50292;BME280;36190;54.980;73.388;2023-04-01T12:07:51;102737.88;;;12.18;35.16
50292;BME280;36190;54.980;73.388;2023-04-01T12:10:21;102747.47;;;12.32;34.74
50292;BME280;36190;54.980;73.388;2023-04-01T12:12:57;102747.34;;;12.45;33.98
50292;BME280;36190;54.980;73.388;2023-04-01T12:15:36;102747.47;;;12.32;33.79
50292;BME280;36190;54.980;73.388;2023-04-01T12:18:13;102748.81;;;12.15;34.07
50292;BME280;36190;54.980;73.388;2023-04-01T12:20:49;102756.63;;;11.93;34.25
50292;BME280;36190;54.980;73.388;2023-04-01T12:23:42;102740.13;;;11.88;34.50
50292;BME280;36190;54.980;73.388;2023-04-01T12:26:30;102740.22;;;11.75;34.37
50292;BME280;36190;54.980;73.388;2023-04-01T12:29:09;102744.56;;;11.65;34.37
50292;BME280;36190;54.980;73.388;2023-04-01T12:31:49;102741.19;;;11.74;34.55
50292;BME280;36190;54.980;73.388;2023-04-01T12:34:36;102734.25;;;11.72;34.39
50292;BME280;36190;54.980;73.388;2023-04-01T12:37:13;102727.03;;;11.61;34.53
50292;BME280;36190;54.980;73.388;2023-04-01T12:42:59;102722.22;;;11.66;34.63
50292;BME280;36190;54.980;73.388;2023-04-01T12:45:32;102720.63;;;11.63;34.75
50292;BME280;36190;54.980;73.388;2023-04-01T12:51:01;102711.94;;;11.48;34.38
50292;BME280;36190;54.980;73.388;2023-04-01T12:53:46;102721.31;;;10.69;35.23
50292;BME280;36190;54.980;73.388;2023-04-01T12:56:23;102721.09;;;9.02;36.98
50292;BME280;36190;54.980;73.388;2023-04-01T12:59:08;102702.91;;;7.51;39.12
50292;BME280;36190;54.980;73.388;2023-04-01T13:02:01;102698.56;;;6.39;40.88
50292;BME280;36190;54.980;73.388;2023-04-01T13:08:06;102687.53;;;4.91;43.42
50292;BME280;36190;54.980;73.388;2023-04-01T13:13:51;102686.09;;;4.26;44.98
50292;BME280;36190;54.980;73.388;2023-04-01T13:16:28;102682.91;;;3.98;45.25
50292;BME280;36190;54.980;73.388;2023-04-01T13:19:00;102681.31;;;3.75;45.93
50292;BME280;36190;54.980;73.388;2023-04-01T13:21:48;102684.34;;;3.66;46.78
50292;BME280;36190;54.980;73.388;2023-04-01T13:24:36;102682.91;;;3.58;46.80
50292;BME280;36190;54.980;73.388;2023-04-01T13:27:15;102675.47;;;3.46;47.32
50292;BME280;36190;54.980;73.388;2023-04-01T13:29:49;102669.13;;;3.29;47.29
50292;BME280;36190;54.980;73.388;2023-04-01T13:32:27;102657.25;;;3.19;47.57
50292;BME280;36190;54.980;73.388;2023-04-01T13:35:20;102656.91;;;3.06;48.39
50292;BME280;36190;54.980;73.388;2023-04-01T13:38:03;102665.81;;;2.81;48.63
50292;BME280;36190;54.980;73.388;2023-04-01T13:40:43;102661.47;;;2.58;49.22
50292;BME280;36190;54.980;73.388;2023-04-01T13:43:19;102646.47;;;2.36;49.72
50292;BME280;36190;54.980;73.388;2023-04-01T13:46:20;102645.34;;;2.19;50.40
50292;BME280;36190;54.980;73.388;2023-04-01T14:00:55;102632.13;;;1.72;51.78
50292;BME280;36190;54.980;73.388;2023-04-01T14:03:37;102641.91;;;1.68;51.89
50292;BME280;36190;54.980;73.388;2023-04-01T14:06:28;102645.72;;;1.59;52.70
50292;BME280;36190;54.980;73.388;2023-04-01T14:09:17;102634.75;;;1.46;52.84
50292;BME280;36190;54.980;73.388;2023-04-01T14:11:55;102641.22;;;1.37;53.10
50292;BME280;36190;54.980;73.388;2023-04-01T14:14:32;102626.59;;;1.29;53.21
50292;BME280;36190;54.980;73.388;2023-04-01T14:17:19;102632.94;;;1.23;53.49
50292;BME280;36190;54.980;73.388;2023-04-01T14:20:02;102636.34;;;1.25;53.90
50292;BME280;36190;54.980;73.388;2023-04-01T14:22:39;102635.59;;;1.21;53.88
50292;BME280;36190;54.980;73.388;2023-04-01T14:25:41;102625.31;;;1.15;54.47
50292;BME280;36190;54.980;73.388;2023-04-01T14:28:20;102628.94;;;1.11;54.44
50292;BME280;36190;54.980;73.388;2023-04-01T14:31:04;102628.19;;;1.07;54.72
50292;BME280;36190;54.980;73.388;2023-04-01T14:33:46;102624.78;;;1.04;54.74
50292;BME280;36190;54.980;73.388;2023-04-01T14:39:29;102592.28;;;0.79;55.07
50292;BME280;36190;54.980;73.388;2023-04-01T14:47:51;102609.84;;;0.77;55.26
50292;BME280;36190;54.980;73.388;2023-04-01T14:50:24;102611.78;;;0.72;55.29
50292;BME280;36190;54.980;73.388;2023-04-01T14:53:11;102602.19;;;0.71;55.95
50292;BME280;36190;54.980;73.388;2023-04-01T14:55:48;102601.38;;;0.69;55.98
50292;BME280;36190;54.980;73.388;2023-04-01T14:58:18;102603.19;;;0.67;55.85
50292;BME280;36190;54.980;73.388;2023-04-01T15:01:11;102605.13;;;0.62;56.24
50292;BME280;36190;54.980;73.388;2023-04-01T15:03:48;102596.63;;;0.53;56.04
50292;BME280;36190;54.980;73.388;2023-04-01T15:06:42;102598.22;;;0.58;56.38
50292;BME280;36190;54.980;73.388;2023-04-01T15:09:19;102588.81;;;0.50;56.12